Time;durP1;ratioP1;P1;durP2;ratioP2;P2;SDS_P1;SDS_P2;PMS_P1;PMS_P2;Temp;Humidity;BMP_temperature;BMP_pressure;BME280_temperature;BME280_humidity;BME280_pressure;Samples;Min_cycle;Max_cycle;Signal;HPM_P1;HPM_P2
2022/07/21 00:01:34;;;;;;;18.63;16.38;;;19.80;99.90;;;;;;5011621;28;20034;-80
2022/07/21 00:04:00;;;;;;;18.95;15.43;;;19.70;99.90;;;;;;5012039;28;20049;-81
2022/07/21 00:06:26;;;;;;;17.05;15.25;;;19.70;99.90;;;;;;5006956;28;20034;-80
2022/07/21 00:08:52;;;;;;;17.25;15.40;;;19.70;99.90;;;;;;5010075;28;20061;-80
2022/07/21 00:11:19;;;;;;;15.32;13.70;;;19.60;99.90;;;;;;5008890;28;20050;-81
2022/07/21 00:13:45;;;;;;;17.83;15.45;;;19.50;99.90;;;;;;5012539;28;20041;-81
2022/07/21 00:16:11;;;;;;;16.23;13.98;;;19.60;99.90;;;;;;5010095;28;20037;-81
2022/07/21 00:18:37;;;;;;;14.63;12.73;;;19.60;99.90;;;;;;5008554;28;20045;-82
2022/07/21 00:21:04;;;;;;;15.00;13.10;;;19.60;99.90;;;;;;5008957;28;20491;-81
2022/07/21 00:23:30;;;;;;;13.38;11.98;;;19.60;99.90;;;;;;5010393;28;20034;-81
2022/07/21 00:25:56;;;;;;;16.55;13.30;;;19.60;99.90;;;;;;5013122;28;20395;-81
2022/07/21 00:28:23;;;;;;;14.07;12.45;;;19.60;99.90;;;;;;5008582;28;20061;-79
2022/07/21 00:30:49;;;;;;;14.93;13.45;;;19.60;99.90;;;;;;4992725;28;20043;-82
2022/07/21 00:33:15;;;;;;;14.63;13.15;;;19.60;99.90;;;;;;4993269;28;20042;-82
2022/07/21 00:35:42;;;;;;;16.52;14.90;;;19.60;99.90;;;;;;4987393;28;20395;-80
2022/07/21 00:38:08;;;;;;;16.02;13.40;;;19.60;99.90;;;;;;4983525;28;20042;-81
2022/07/21 00:40:34;;;;;;;16.63;14.82;;;19.60;99.90;;;;;;4991068;28;20459;-81
2022/07/21 00:43:00;;;;;;;18.50;16.08;;;19.60;99.90;;;;;;4987886;28;20031;-82
2022/07/21 00:45:26;;;;;;;20.52;17.52;;;19.60;99.90;;;;;;4986286;28;20041;-81
2022/07/21 00:47:52;;;;;;;20.38;18.17;;;19.70;99.90;;;;;;4989157;28;20062;-83
2022/07/21 00:50:20;;;;;;;23.92;20.63;;;19.80;99.90;;;;;;4985732;28;20041;-83
2022/07/21 00:52:48;;;;;;;24.50;19.80;;;19.80;99.90;;;;;;4987188;28;20030;-83
2022/07/21 00:55:19;;;;;;;24.65;21.20;;;19.80;99.90;;;;;;4990424;28;20049;-84
2022/07/21 00:57:46;;;;;;;21.52;18.98;;;19.90;99.90;;;;;;4989329;28;20612;-82
2022/07/21 01:00:20;;;;;;;19.95;17.70;;;19.80;99.90;;;;;;4988495;28;20042;-82
2022/07/21 01:02:46;;;;;;;19.50;17.50;;;19.80;99.90;;;;;;4990378;28;20038;-83
2022/07/21 01:05:14;;;;;;;22.95;16.65;;;19.80;99.90;;;;;;4987970;28;20038;-84
2022/07/21 01:07:46;;;;;;;18.33;16.08;;;19.70;99.90;;;;;;4987675;28;20038;-82
2022/07/21 01:10:14;;;;;;;21.17;17.45;;;19.70;99.90;;;;;;4984275;28;20349;-85
2022/07/21 01:12:41;;;;;;;19.30;16.55;;;19.70;99.90;;;;;;4973735;28;20046;-84
2022/07/21 01:15:09;;;;;;;22.08;18.75;;;19.70;99.90;;;;;;4970369;28;20034;-83
2022/07/21 01:17:35;;;;;;;21.38;18.45;;;19.70;99.90;;;;;;4986688;28;20518;-82
2022/07/21 01:20:05;;;;;;;21.65;19.25;;;19.60;99.90;;;;;;4987036;28;20492;-83
2022/07/21 01:22:33;;;;;;;22.23;19.40;;;19.60;99.90;;;;;;4992538;28;20475;-83
2022/07/21 01:24:59;;;;;;;22.98;19.27;;;19.60;99.90;;;;;;4985632;28;20038;-83
2022/07/21 01:27:27;;;;;;;26.77;22.00;;;19.50;99.90;;;;;;4990481;28;20898;-82
2022/07/21 01:29:54;;;;;;;28.48;25.38;;;19.60;99.90;;;;;;4990233;28;20038;-83
2022/07/21 01:32:20;;;;;;;32.58;23.17;;;19.60;99.90;;;;;;5007786;28;20045;-83
2022/07/21 01:34:47;;;;;;;25.15;22.52;;;19.60;99.90;;;;;;5009006;28;20030;-83
2022/07/21 01:37:13;;;;;;;27.50;21.92;;;19.70;99.90;;;;;;5006467;28;20468;-83
2022/07/21 01:42:25;;;;;;;25.33;20.75;;;19.70;99.90;;;;;;5008511;28;20455;-81
2022/07/21 01:44:51;;;;;;;26.02;21.25;;;19.70;99.90;;;;;;5012966;28;20034;-84
2022/07/21 01:47:17;;;;;;;24.33;21.67;;;19.70;99.90;;;;;;5007489;28;20026;-83
2022/07/21 01:49:44;;;;;;;26.08;22.27;;;19.70;99.90;;;;;;5003784;28;20058;-83
2022/07/21 01:52:10;;;;;;;25.23;22.27;;;19.70;99.90;;;;;;5008714;28;20037;-83
2022/07/21 01:54:37;;;;;;;22.63;20.33;;;19.70;99.90;;;;;;5001539;28;20041;-82
2022/07/21 01:57:03;;;;;;;24.50;20.88;;;19.70;99.90;;;;;;5019827;28;20033;-80
2022/07/21 01:59:29;;;;;;;22.02;19.50;;;19.80;99.90;;;;;;4991593;28;20022;-83
2022/07/21 02:01:55;;;;;;;23.23;20.50;;;19.80;99.90;;;;;;5011589;28;20390;-83
2022/07/21 02:04:21;;;;;;;23.17;20.70;;;19.80;99.90;;;;;;5007765;28;20101;-83
2022/07/21 02:06:48;;;;;;;26.27;22.08;;;19.80;99.90;;;;;;5008999;28;20038;-83
2022/07/21 02:09:14;;;;;;;25.63;22.50;;;19.70;99.90;;;;;;5008876;28;20079;-83
2022/07/21 02:11:40;;;;;;;24.55;21.48;;;19.80;99.90;;;;;;5007048;28;20022;-82
2022/07/21 02:14:06;;;;;;;25.63;22.85;;;19.80;99.90;;;;;;5005965;28;20027;-83
2022/07/21 02:16:33;;;;;;;25.95;22.42;;;19.70;99.90;;;;;;5009740;28;20033;-81
2022/07/21 02:18:59;;;;;;;25.08;21.20;;;19.80;99.90;;;;;;5008383;28;20034;-83
2022/07/21 02:21:26;;;;;;;25.85;21.08;;;19.80;99.90;;;;;;5005697;28;20038;-80
2022/07/21 02:23:52;;;;;;;26.80;21.88;;;19.80;99.90;;;;;;5007608;28;20034;-83
2022/07/21 02:26:18;;;;;;;25.27;20.90;;;19.80;99.90;;;;;;5006500;28;20374;-83
2022/07/21 02:28:44;;;;;;;24.17;21.67;;;19.80;99.90;;;;;;4998847;28;20541;-83
2022/07/21 02:31:10;;;;;;;23.58;21.30;;;19.80;99.90;;;;;;5007935;28;20050;-83
2022/07/21 02:33:37;;;;;;;25.23;22.27;;;19.80;99.90;;;;;;5008034;28;20030;-84
2022/07/21 02:36:03;;;;;;;25.30;22.25;;;19.80;99.90;;;;;;5008875;28;20390;-82
2022/07/21 02:38:29;;;;;;;30.00;21.73;;;19.80;99.90;;;;;;5001182;28;20030;-83
2022/07/21 02:40:55;;;;;;;25.63;21.75;;;19.80;99.90;;;;;;5006105;28;20487;-83
2022/07/21 02:43:21;;;;;;;25.65;20.83;;;19.90;99.90;;;;;;5009433;28;20409;-83
2022/07/21 02:45:48;;;;;;;24.08;21.60;;;19.90;99.90;;;;;;5006954;28;20053;-84
2022/07/21 02:48:14;;;;;;;23.02;20.25;;;19.80;99.90;;;;;;5007441;28;20042;-83
2022/07/21 02:50:42;;;;;;;25.20;21.23;;;19.80;99.90;;;;;;5007774;28;20044;-82
2022/07/21 02:53:11;;;;;;;22.40;19.73;;;19.90;99.90;;;;;;5005185;28;20034;-84
2022/07/21 02:55:38;;;;;;;24.75;21.08;;;19.90;99.90;;;;;;5009341;28;20038;-83
2022/07/21 02:58:06;;;;;;;26.17;20.92;;;19.90;99.90;;;;;;5001022;28;20396;-82
2022/07/21 03:00:34;;;;;;;22.80;19.30;;;19.90;99.90;;;;;;5003765;28;20488;-82
2022/07/21 03:03:00;;;;;;;21.40;19.13;;;19.90;99.90;;;;;;4999245;28;20042;-83
2022/07/21 03:05:26;;;;;;;23.85;19.65;;;19.80;99.90;;;;;;5008638;28;20034;-80
2022/07/21 03:07:53;;;;;;;20.92;18.83;;;19.80;99.90;;;;;;5007818;28;20022;-83
2022/07/21 03:10:19;;;;;;;21.13;18.52;;;19.80;99.90;;;;;;5008182;28;20483;-83
2022/07/21 03:12:45;;;;;;;21.63;18.65;;;19.80;99.90;;;;;;5013361;28;20110;-84
2022/07/21 03:15:11;;;;;;;19.88;17.80;;;19.80;99.90;;;;;;5009419;28;20037;-83
2022/07/21 03:17:37;;;;;;;19.13;17.13;;;19.80;99.90;;;;;;5010045;28;20056;-82
2022/07/21 03:20:04;;;;;;;19.90;17.30;;;19.70;99.90;;;;;;5009140;28;20414;-82
2022/07/21 03:22:30;;;;;;;18.73;15.07;;;19.70;99.90;;;;;;5012126;28;20045;-82
2022/07/21 03:24:56;;;;;;;17.85;15.77;;;19.70;99.90;;;;;;5012245;28;20038;-83
2022/07/21 03:27:23;;;;;;;18.23;16.42;;;19.70;99.90;;;;;;5008113;28;20037;-83
2022/07/21 03:29:49;;;;;;;17.48;15.68;;;19.80;99.90;;;;;;5007392;28;20053;-81
2022/07/21 03:32:15;;;;;;;16.80;14.48;;;19.70;99.90;;;;;;5008250;28;20053;-82
2022/07/21 03:34:41;;;;;;;17.50;15.68;;;19.70;99.90;;;;;;5009203;28;20038;-82
2022/07/21 03:37:07;;;;;;;15.30;13.77;;;19.80;99.90;;;;;;5011728;28;20510;-82
2022/07/21 03:39:33;;;;;;;15.63;13.77;;;19.70;99.90;;;;;;5004722;28;20031;-82
2022/07/21 03:42:00;;;;;;;13.85;12.55;;;19.70;99.90;;;;;;5008297;28;20027;-83
2022/07/21 03:44:26;;;;;;;15.65;12.50;;;19.70;99.90;;;;;;5011157;28;20487;-81
2022/07/21 03:46:52;;;;;;;13.10;11.82;;;19.70;99.90;;;;;;5008414;28;20037;-84
2022/07/21 03:49:18;;;;;;;13.77;10.93;;;19.70;99.90;;;;;;5005388;28;20104;-82
2022/07/21 03:51:45;;;;;;;13.57;11.73;;;19.60;99.90;;;;;;5013625;28;20482;-82
2022/07/21 03:54:11;;;;;;;12.77;11.10;;;19.70;99.90;;;;;;5010507;28;20038;-81
2022/07/21 03:56:37;;;;;;;12.05;10.07;;;19.70;99.90;;;;;;5008193;28;20483;-81
2022/07/21 03:59:03;;;;;;;14.15;10.55;;;19.70;99.90;;;;;;5007503;28;20034;-80
2022/07/21 04:01:29;;;;;;;11.00;9.70;;;19.70;99.90;;;;;;5004571;28;20042;-81
2022/07/21 04:03:56;;;;;;;11.50;10.18;;;19.60;99.90;;;;;;5013742;28;20037;-82
2022/07/21 04:06:22;;;;;;;13.05;10.63;;;19.60;99.90;;;;;;5011871;28;20040;-82
2022/07/21 04:08:48;;;;;;;10.65;9.57;;;19.60;99.90;;;;;;5006541;28;20027;-82
2022/07/21 04:11:14;;;;;;;14.82;9.93;;;19.60;99.90;;;;;;5006000;28;20040;-81
2022/07/21 04:13:40;;;;;;;12.68;10.98;;;19.60;99.90;;;;;;5013851;28;20034;-82
2022/07/21 04:16:07;;;;;;;11.80;10.45;;;19.60;99.90;;;;;;5009218;28;20498;-82
2022/07/21 04:18:33;;;;;;;13.40;10.93;;;19.60;99.90;;;;;;5009151;28;20046;-81
2022/07/21 04:20:59;;;;;;;13.10;11.32;;;19.60;99.90;;;;;;5006145;28;20475;-81
2022/07/21 04:23:25;;;;;;;12.30;11.10;;;19.70;99.90;;;;;;5007763;28;20083;-80
2022/07/21 04:25:52;;;;;;;12.68;10.75;;;19.60;99.90;;;;;;5005885;28;20391;-80
2022/07/21 04:28:18;;;;;;;15.48;10.43;;;19.70;99.90;;;;;;5006746;28;20053;-81
2022/07/21 04:30:44;;;;;;;12.35;11.15;;;19.70;99.90;;;;;;5008213;28;20046;-81
2022/07/21 04:33:10;;;;;;;14.57;12.18;;;19.70;99.90;;;;;;5009807;28;20467;-80
2022/07/21 04:35:36;;;;;;;12.98;11.18;;;19.70;99.90;;;;;;5007072;28;20042;-82
2022/07/21 04:38:03;;;;;;;12.25;10.77;;;19.70;99.90;;;;;;5009558;28;20387;-81
2022/07/21 04:40:29;;;;;;;15.63;12.88;;;19.70;99.90;;;;;;5009043;28;20033;-80
2022/07/21 04:42:55;;;;;;;13.60;12.15;;;19.70;99.90;;;;;;5012543;28;20417;-80
2022/07/21 04:45:21;;;;;;;12.20;11.00;;;19.70;99.90;;;;;;5010131;28;20026;-80
2022/07/21 04:47:50;;;;;;;15.63;10.57;;;19.80;99.90;;;;;;5005906;28;20635;-80
2022/07/21 04:50:18;;;;;;;12.00;10.63;;;19.80;99.90;;;;;;5011892;28;20053;-80
2022/07/21 04:52:45;;;;;;;12.50;11.20;;;19.90;99.90;;;;;;5008599;28;20399;-80
2022/07/21 04:55:12;;;;;;;11.60;10.30;;;20.20;99.90;;;;;;5010838;28;20038;-80
2022/07/21 04:57:43;;;;;;;11.32;10.18;;;20.50;99.90;;;;;;5011411;28;20044;-80
2022/07/21 05:00:11;;;;;;;12.88;11.57;;;20.60;99.90;;;;;;5007068;28;20035;-86
2022/07/21 05:02:38;;;;;;;12.07;10.77;;;20.60;99.90;;;;;;5013449;28;20049;-82
2022/07/21 05:05:05;;;;;;;12.18;10.88;;;20.90;99.90;;;;;;5009595;28;20030;-81
2022/07/21 05:07:32;;;;;;;10.70;9.20;;;21.40;99.90;;;;;;5019302;28;20026;-81
2022/07/21 05:09:58;;;;;;;11.00;9.35;;;21.40;99.90;;;;;;5017414;28;20042;-80
2022/07/21 05:12:25;;;;;;;11.07;9.73;;;21.20;99.90;;;;;;5012252;28;20030;-80
2022/07/21 05:14:52;;;;;;;11.15;9.48;;;21.00;99.90;;;;;;4995093;28;20030;-81
2022/07/21 05:17:18;;;;;;;14.15;10.35;;;20.90;99.90;;;;;;5001305;28;20077;-82
2022/07/21 05:19:48;;;;;;;11.85;9.55;;;20.70;99.90;;;;;;5013181;28;20034;-81
2022/07/21 05:22:14;;;;;;;11.55;10.05;;;20.60;99.90;;;;;;5009523;28;20470;-81
2022/07/21 05:24:40;;;;;;;10.73;9.63;;;20.60;99.90;;;;;;5009104;28;20037;-81
2022/07/21 05:27:06;;;;;;;11.95;10.68;;;20.50;99.90;;;;;;5005023;28;20046;-81
2022/07/21 05:29:33;;;;;;;11.43;10.10;;;20.60;99.90;;;;;;5006155;28;20058;-81
2022/07/21 05:31:59;;;;;;;12.93;9.63;;;20.60;99.90;;;;;;5012305;28;20034;-81
2022/07/21 05:34:28;;;;;;;10.98;9.88;;;20.60;99.90;;;;;;5009825;28;20026;-82
2022/07/21 05:36:55;;;;;;;12.65;10.52;;;20.60;99.90;;;;;;5011941;28;20034;-81
2022/07/21 05:39:21;;;;;;;12.30;10.38;;;20.70;99.90;;;;;;5012785;28;20483;-82
2022/07/21 05:41:47;;;;;;;12.35;9.10;;;20.70;99.90;;;;;;5006028;28;20219;-81
2022/07/21 05:44:13;;;;;;;14.52;10.32;;;20.80;99.90;;;;;;5009029;28;20041;-82
2022/07/21 05:46:39;;;;;;;10.45;9.40;;;20.90;99.90;;;;;;5007642;28;20034;-81
2022/07/21 05:49:06;;;;;;;10.63;8.88;;;21.10;99.90;;;;;;5007140;28;20539;-82
2022/07/21 05:51:32;;;;;;;13.23;9.18;;;21.30;99.90;;;;;;5006050;28;20471;-79
2022/07/21 05:53:58;;;;;;;8.68;7.78;;;21.50;99.90;;;;;;5007803;28;20036;-81
2022/07/21 05:56:24;;;;;;;9.73;8.57;;;21.50;99.90;;;;;;5006578;28;20038;-80
2022/07/21 05:58:50;;;;;;;11.38;8.50;;;21.40;99.90;;;;;;5008451;28;20049;-80
2022/07/21 06:01:17;;;;;;;9.30;7.82;;;21.60;99.90;;;;;;5012837;28;20078;-80
2022/07/21 06:03:46;;;;;;;9.50;7.07;;;22.40;99.90;;;;;;5004951;28;20042;-81
2022/07/21 06:06:15;;;;;;;9.10;7.03;;;23.70;99.90;;;;;;5008798;28;20046;-79
2022/07/21 06:08:43;;;;;;;10.20;6.38;;;24.70;99.90;;;;;;5005983;28;20297;-80
2022/07/21 06:11:13;;;;;;;8.60;7.28;;;24.20;99.80;;;;;;5009787;28;20038;-81
2022/07/21 06:13:39;;;;;;;9.32;6.53;;;24.00;99.90;;;;;;5003325;28;20045;-79
2022/07/21 06:16:07;;;;;;;7.53;6.82;;;24.20;99.90;;;;;;5010880;28;20037;-78
2022/07/21 06:18:33;;;;;;;7.38;6.25;;;24.90;98.10;;;;;;5011017;28;20033;-80
2022/07/21 06:21:00;;;;;;;8.00;7.18;;;24.50;99.00;;;;;;5011213;28;20037;-79
2022/07/21 06:23:27;;;;;;;7.20;6.50;;;24.20;99.90;;;;;;5006411;28;20034;-78
2022/07/21 06:25:54;;;;;;;12.02;6.13;;;24.70;98.30;;;;;;5010064;28;20034;-80
2022/07/21 06:28:21;;;;;;;6.57;5.97;;;25.60;97.20;;;;;;5004633;28;20467;-75
2022/07/21 06:30:47;;;;;;;8.85;6.88;;;26.10;94.00;;;;;;5007793;28;20064;-74
2022/07/21 06:33:14;;;;;;;7.90;6.60;;;26.00;93.20;;;;;;5007005;28;20030;-75
2022/07/21 06:35:41;;;;;;;7.13;6.43;;;25.90;93.90;;;;;;5006169;28;20042;-74
2022/07/21 06:38:07;;;;;;;6.20;5.60;;;26.70;91.20;;;;;;5006745;28;20038;-74
2022/07/21 06:40:34;;;;;;;7.35;5.78;;;26.40;91.30;;;;;;5010439;28;20038;-74
2022/07/21 06:43:00;;;;;;;9.27;6.30;;;26.10;91.90;;;;;;5004435;28;20080;-75
2022/07/21 06:45:26;;;;;;;8.13;6.20;;;26.20;91.80;;;;;;5010487;28;20510;-74
2022/07/21 06:48:06;;;;;;;8.00;6.10;;;25.90;91.80;;;;;;5013936;28;20390;-75
2022/07/21 06:50:33;;;;;;;8.13;6.53;;;26.00;93.90;;;;;;5012342;28;20379;-74
2022/07/21 06:53:00;;;;;;;7.47;6.43;;;26.20;91.70;;;;;;5008229;28;20379;-74
2022/07/21 06:55:27;;;;;;;7.88;6.88;;;26.00;91.90;;;;;;5008074;28;20046;-74
2022/07/21 06:57:53;;;;;;;10.07;6.93;;;25.20;93.80;;;;;;5010217;28;20422;-74
2022/07/21 07:00:20;;;;;;;6.80;5.90;;;24.70;94.90;;;;;;5014266;28;20383;-74
2022/07/21 07:02:46;;;;;;;7.45;6.68;;;24.90;95.10;;;;;;5013515;28;20050;-74
2022/07/21 07:05:13;;;;;;;7.25;6.47;;;25.00;94.80;;;;;;5011283;28;20049;-74
2022/07/21 07:07:39;;;;;;;9.20;8.30;;;24.50;94.70;;;;;;5012476;28;20029;-73
2022/07/21 07:10:06;;;;;;;9.95;8.25;;;24.30;96.50;;;;;;5011922;28;20042;-74
2022/07/21 07:12:32;;;;;;;8.82;7.35;;;24.20;96.60;;;;;;5007948;28;20026;-73
2022/07/21 07:14:58;;;;;;;8.48;6.57;;;23.90;97.70;;;;;;5007158;28;20038;-73
2022/07/21 07:17:25;;;;;;;7.80;6.78;;;24.00;97.30;;;;;;5009390;28;20025;-72
2022/07/21 07:19:51;;;;;;;7.95;7.05;;;23.80;98.10;;;;;;5011900;28;20030;-73
2022/07/21 07:22:17;;;;;;;7.93;6.88;;;23.60;97.50;;;;;;5013359;28;20419;-77
2022/07/21 07:24:43;;;;;;;8.95;7.10;;;23.30;98.70;;;;;;5003372;28;20022;-74
2022/07/21 07:27:09;;;;;;;7.60;6.78;;;23.50;98.60;;;;;;5012482;28;20478;-72
2022/07/21 07:29:35;;;;;;;9.43;7.78;;;23.70;99.60;;;;;;5007967;28;20046;-73
2022/07/21 07:32:02;;;;;;;8.95;6.80;;;24.30;97.40;;;;;;5013903;28;20034;-73
2022/07/21 07:34:28;;;;;;;8.73;7.10;;;24.40;96.50;;;;;;5004922;28;20814;-74
2022/07/21 07:36:54;;;;;;;7.70;6.90;;;24.40;97.10;;;;;;4996705;28;20037;-73
2022/07/21 07:39:20;;;;;;;8.57;7.63;;;24.10;97.70;;;;;;5004758;28;20022;-74
2022/07/21 07:41:47;;;;;;;9.13;7.22;;;24.20;97.60;;;;;;5007990;28;20037;-74
2022/07/21 07:44:13;;;;;;;9.00;7.30;;;24.20;97.60;;;;;;5010888;28;20029;-73
2022/07/21 07:46:39;;;;;;;9.30;7.90;;;24.10;97.70;;;;;;5004687;28;20378;-73
2022/07/21 07:49:05;;;;;;;11.43;8.35;;;24.00;98.30;;;;;;5011482;28;20037;-73
2022/07/21 07:51:33;;;;;;;9.88;7.78;;;24.70;97.10;;;;;;4995552;28;20040;-73
2022/07/21 07:54:02;;;;;;;9.77;7.88;;;25.70;95.30;;;;;;5005475;28;20030;-73
2022/07/21 07:56:28;;;;;;;10.30;7.23;;;26.10;93.90;;;;;;5012767;28;20045;-73
2022/07/21 07:58:54;;;;;;;8.88;7.80;;;26.20;92.50;;;;;;5011723;28;20280;-72
2022/07/21 08:01:20;;;;;;;11.98;7.05;;;25.90;92.80;;;;;;5014035;28;20036;-73
2022/07/21 08:03:46;;;;;;;7.00;6.10;;;25.60;93.90;;;;;;5011866;28;20041;-77
2022/07/21 08:06:13;;;;;;;9.50;7.30;;;25.80;93.50;;;;;;5009371;28;20049;-73
2022/07/21 08:08:39;;;;;;;12.73;7.82;;;25.20;94.60;;;;;;5013016;28;20065;-74
2022/07/21 08:11:05;;;;;;;12.10;7.72;;;25.20;94.10;;;;;;5006619;28;20030;-73
2022/07/21 08:13:32;;;;;;;8.15;7.35;;;24.60;95.60;;;;;;5006450;28;20038;-79
2022/07/21 08:15:58;;;;;;;9.23;8.18;;;24.10;96.60;;;;;;5008631;28;20361;-73
2022/07/21 08:18:24;;;;;;;10.38;8.48;;;23.70;97.60;;;;;;5008008;28;20046;-73
2022/07/21 08:20:51;;;;;;;9.80;8.85;;;23.60;98.20;;;;;;5008121;28;20037;-73
2022/07/21 08:23:17;;;;;;;9.80;7.50;;;23.80;98.60;;;;;;5007905;28;20168;-73
2022/07/21 08:25:43;;;;;;;10.07;8.07;;;24.60;97.60;;;;;;5010768;28;20025;-74
2022/07/21 08:28:10;;;;;;;9.00;7.68;;;24.80;96.00;;;;;;5009746;28;20023;-75
2022/07/21 08:30:37;;;;;;;13.48;8.57;;;24.80;96.40;;;;;;5031250;28;20052;-74
2022/07/21 08:33:04;;;;;;;8.93;7.63;;;25.00;95.20;;;;;;5015687;28;20034;-76
2022/07/21 08:35:32;;;;;;;10.60;8.10;;;25.00;95.40;;;;;;5011076;28;20048;-73
2022/07/21 08:38:02;;;;;;;8.88;7.75;;;24.90;95.60;;;;;;5013278;28;20038;-73
2022/07/21 08:40:30;;;;;;;;;;;24.80;96.80;;;;;;5015258;28;20490;-73
2022/07/21 08:42:56;;;;;;;9.60;7.70;;;24.90;96.30;;;;;;5004529;28;19909;-74
2022/07/21 08:45:22;;;;;;;8.18;7.32;;;25.70;94.20;;;;;;5007712;28;20033;-74
2022/07/21 08:47:53;;;;;;;11.25;6.78;;;26.00;93.40;;;;;;5008207;28;20414;-74
2022/07/21 08:50:23;;;;;;;8.43;7.00;;;26.00;93.80;;;;;;5013469;28;20038;-74
2022/07/21 08:52:49;;;;;;;7.60;6.63;;;26.70;92.00;;;;;;5009990;28;20106;-74
2022/07/21 08:55:15;;;;;;;7.20;6.50;;;26.80;89.20;;;;;;5008872;28;20482;-75
2022/07/21 08:57:42;;;;;;;7.28;6.45;;;26.30;91.00;;;;;;5006516;28;20026;-74
2022/07/21 09:00:10;;;;;;;10.65;7.57;;;25.50;92.50;;;;;;5008933;28;20030;-73
2022/07/21 09:02:38;;;;;;;7.68;6.88;;;25.40;93.60;;;;;;5011016;28;20030;-73
2022/07/21 09:05:07;;;;;;;8.18;7.38;;;25.20;93.80;;;;;;5007952;28;20038;-73
2022/07/21 09:07:51;;;;;;;9.35;7.20;;;25.00;94.40;;;;;;5011656;28;20033;-78
2022/07/21 09:10:26;;;;;;;8.57;7.50;;;24.90;94.30;;;;;;5004908;28;20034;-74
2022/07/21 09:12:56;;;;;;;7.93;5.78;;;24.70;94.90;;;;;;4999865;28;20030;-74
2022/07/21 09:15:24;;;;;;;6.95;6.10;;;24.90;94.30;;;;;;5002846;28;20045;-74
2022/07/21 09:18:08;;;;;;;9.75;5.82;;;25.30;93.70;;;;;;5006848;28;20356;-74
2022/07/21 09:20:36;;;;;;;6.80;5.15;;;26.40;92.50;;;;;;5008099;28;20032;-74
2022/07/21 09:23:08;;;;;;;6.18;5.43;;;27.50;88.20;;;;;;5008984;28;20030;-74
2022/07/21 09:25:43;;;;;;;6.63;5.15;;;28.00;82.10;;;;;;5004804;28;20469;-75
2022/07/21 09:28:30;;;;;;;6.78;5.72;;;27.80;75.60;;;;;;5012605;28;20029;-75
2022/07/21 09:31:08;;;;;;;6.20;5.22;;;27.50;82.80;;;;;;5009207;28;20042;-73
2022/07/21 09:33:43;;;;;;;6.45;5.43;;;27.40;85.20;;;;;;5005544;28;20046;-78
2022/07/21 09:36:17;;;;;;;7.03;5.22;;;26.40;84.80;;;;;;5010899;28;20033;-75
2022/07/21 09:38:50;;;;;;;5.65;4.80;;;26.60;87.10;;;;;;5006177;28;20450;-74
2022/07/21 09:41:24;;;;;;;5.85;4.80;;;27.10;80.90;;;;;;5009391;28;20030;-74
2022/07/21 09:43:52;;;;;;;5.55;4.25;;;26.70;80.00;;;;;;5002742;28;20513;-74
2022/07/21 09:46:25;;;;;;;8.52;6.05;;;26.60;82.70;;;;;;5009964;28;20406;-74
2022/07/21 09:48:56;;;;;;;6.55;5.88;;;26.30;83.80;;;;;;4994721;28;20029;-74
2022/07/21 09:51:31;;;;;;;6.57;5.10;;;26.10;84.00;;;;;;5008657;28;20041;-75
2022/07/21 09:54:01;;;;;;;6.97;5.30;;;26.30;85.10;;;;;;5004052;28;20030;-73
2022/07/21 09:56:31;;;;;;;6.70;5.93;;;26.90;81.50;;;;;;5010072;28;20026;-73
2022/07/21 09:58:58;;;;;;;6.80;5.22;;;26.30;83.20;;;;;;5007422;28;20022;-74
2022/07/21 10:01:26;;;;;;;7.13;5.65;;;27.30;80.40;;;;;;5011972;28;20046;-74
2022/07/21 10:03:53;;;;;;;6.90;4.57;;;27.10;78.00;;;;;;5007679;28;20045;-74
2022/07/21 10:06:24;;;;;;;5.60;5.10;;;26.30;76.20;;;;;;4989900;28;20458;-74
2022/07/21 10:08:51;;;;;;;5.25;4.25;;;25.90;82.80;;;;;;5001088;28;20347;-74
2022/07/21 10:11:17;;;;;;;7.82;4.35;;;26.80;79.10;;;;;;5002538;28;20038;-74
2022/07/21 10:13:44;;;;;;;6.47;4.50;;;27.40;73.20;;;;;;5008166;28;20037;-73
2022/07/21 10:16:11;;;;;;;6.50;3.92;;;27.40;75.40;;;;;;5006801;28;20029;-73
2022/07/21 10:19:14;;;;;;;9.02;4.40;;;28.50;67.40;;;;;;5006421;28;20356;-73
2022/07/21 10:22:00;;;;;;;4.78;3.50;;;28.80;65.70;;;;;;5003754;28;20071;-74
2022/07/21 10:24:30;;;;;;;95.28;8.75;;;29.60;61.80;;;;;;5008150;28;20034;-74
2022/07/21 10:27:09;;;;;;;4.95;3.40;;;29.10;64.20;;;;;;5008093;28;20029;-74
2022/07/21 10:29:48;;;;;;;5.10;4.13;;;29.20;60.10;;;;;;5010846;28;20038;-74
2022/07/21 10:32:20;;;;;;;4.57;4.15;;;28.30;63.50;;;;;;5005697;28;20049;-74
2022/07/21 10:34:48;;;;;;;5.22;4.15;;;27.70;62.20;;;;;;5004752;28;20030;-74
2022/07/21 10:37:39;;;;;;;7.28;4.68;;;26.70;64.50;;;;;;5011061;28;20136;-73
2022/07/21 10:40:20;;;;;;;8.32;4.80;;;26.30;67.70;;;;;;5006208;28;20029;-73
2022/07/21 10:43:07;;;;;;;5.88;5.28;;;25.80;67.90;;;;;;5006856;28;20049;-76
2022/07/21 10:45:38;;;;;;;87.35;16.80;;;25.30;70.00;;;;;;4971455;28;20037;-75
2022/07/21 10:48:07;;;;;;;9.45;5.28;;;25.10;72.30;;;;;;5005057;28;20375;-74
2022/07/21 10:50:36;;;;;;;5.97;5.43;;;25.10;72.70;;;;;;5006576;28;20041;-74
2022/07/21 10:53:05;;;;;;;5.72;4.75;;;25.00;73.40;;;;;;5009513;28;20029;-75
2022/07/21 10:55:47;;;;;;;113.82;18.08;;;25.00;75.30;;;;;;5011912;28;20030;-73
2022/07/21 10:58:39;;;;;;;15.35;5.10;;;25.00;74.30;;;;;;5007803;28;20033;-74
2022/07/21 11:01:14;;;;;;;6.28;4.38;;;24.90;74.20;;;;;;5010721;28;20045;-74
2022/07/21 11:03:42;;;;;;;5.55;5.03;;;24.90;76.60;;;;;;4998183;28;20038;-74
2022/07/21 11:06:14;;;;;;;5.43;4.22;;;25.10;74.80;;;;;;5010040;28;20371;-74
2022/07/21 11:08:49;;;;;;;6.40;4.50;;;24.90;74.00;;;;;;5007033;28;20486;-74
2022/07/21 11:11:25;;;;;;;5.70;4.78;;;24.90;74.20;;;;;;5009637;28;20038;-73
2022/07/21 11:14:05;;;;;;;6.32;5.30;;;25.10;73.70;;;;;;5008426;28;20026;-74
2022/07/21 11:16:43;;;;;;;10.20;4.95;;;25.20;71.90;;;;;;5010680;28;20030;-73
2022/07/21 11:19:39;;;;;;;6.70;5.93;;;25.10;73.40;;;;;;5010445;28;20041;-74
2022/07/21 11:22:08;;;;;;;7.00;5.60;;;25.70;72.30;;;;;;5007262;28;20473;-73
2022/07/21 11:24:36;;;;;;;6.67;5.87;;;26.20;70.80;;;;;;5004426;28;20033;-79
2022/07/21 11:27:07;;;;;;;5.88;5.28;;;26.30;71.30;;;;;;5007496;28;20033;-73
2022/07/21 11:29:36;;;;;;;7.07;5.10;;;26.10;71.40;;;;;;5009476;28;20049;-73
2022/07/21 11:32:04;;;;;;;6.40;4.93;;;26.00;70.10;;;;;;5006513;28;20036;-74
2022/07/21 11:34:45;;;;;;;6.82;6.13;;;26.00;70.50;;;;;;5011109;28;20479;-74
2022/07/21 11:37:15;;;;;;;7.68;5.80;;;25.90;69.40;;;;;;5009459;28;20034;-74
2022/07/21 11:39:41;;;;;;;8.38;5.50;;;26.10;70.50;;;;;;5009357;28;20022;-74
2022/07/21 11:42:16;;;;;;;6.72;5.68;;;26.50;69.90;;;;;;5009030;28;20025;-74
2022/07/21 11:44:43;;;;;;;7.18;5.30;;;27.00;68.50;;;;;;5015063;28;20030;-74
2022/07/21 11:47:12;;;;;;;42.65;8.90;;;27.20;65.40;;;;;;5015636;28;20029;-75
2022/07/21 11:49:39;;;;;;;8.25;5.65;;;27.20;64.10;;;;;;5015931;28;20040;-74
2022/07/21 11:52:17;;;;;;;43.15;8.20;;;26.70;63.70;;;;;;5019775;28;20030;-74
2022/07/21 11:54:44;;;;;;;6.13;5.13;;;26.40;64.90;;;;;;5002414;28;20037;-74
2022/07/21 11:57:11;;;;;;;7.82;5.43;;;26.40;65.80;;;;;;5008817;28;20026;-73
2022/07/21 11:59:40;;;;;;;6.60;5.07;;;26.40;64.20;;;;;;5014149;28;20025;-74
2022/07/21 12:02:15;;;;;;;7.53;5.77;;;26.30;65.00;;;;;;5013613;28;20037;-74
2022/07/21 12:04:48;;;;;;;11.77;5.68;;;26.00;65.70;;;;;;5012519;28;20394;-74
2022/07/21 12:07:19;;;;;;;6.85;5.38;;;26.00;64.80;;;;;;5006796;28;20026;-74
2022/07/21 12:09:48;;;;;;;6.82;5.10;;;26.20;65.60;;;;;;5010121;28;20034;-75
2022/07/21 12:12:14;;;;;;;6.22;5.53;;;26.90;62.50;;;;;;5012208;28;20021;-74
2022/07/21 12:14:47;;;;;;;6.57;4.75;;;27.10;62.40;;;;;;5012318;28;20022;-74
2022/07/21 12:17:16;;;;;;;58.90;56.20;;;27.50;61.60;;;;;;5014847;28;20387;-72
2022/07/21 12:19:44;;;;;;;191.23;31.77;;;28.00;59.40;;;;;;5006816;28;21407;-73
2022/07/21 12:22:10;;;;;;;1999.90;999.90;;;28.50;58.70;;;;;;4996793;28;20033;-73
2022/07/21 12:25:04;;;;;;;94.43;89.93;;;28.60;58.60;;;;;;5012351;28;20029;-76
2022/07/21 12:27:31;;;;;;;18.85;17.50;;;28.60;58.90;;;;;;5009930;28;20057;-74
2022/07/21 12:29:57;;;;;;;5.88;5.28;;;27.80;58.60;;;;;;5002971;28;20049;-74
2022/07/21 12:32:44;;;;;;;7.00;4.50;;;27.90;58.70;;;;;;5011639;28;20056;-74
2022/07/21 12:35:22;;;;;;;6.90;5.10;;;28.00;58.40;;;;;;5008953;28;20391;-74
2022/07/21 12:37:56;;;;;;;6.47;5.03;;;27.90;58.40;;;;;;4999200;28;20026;-74
2022/07/21 12:40:23;;;;;;;5.72;4.38;;;27.60;58.30;;;;;;5013003;28;20038;-74
2022/07/21 12:42:49;;;;;;;5.82;5.30;;;27.00;59.40;;;;;;5007723;28;20041;-75
2022/07/21 12:45:20;;;;;;;7.72;4.82;;;26.70;59.20;;;;;;5010108;28;20026;-74
2022/07/21 12:48:06;;;;;;;8.70;5.57;;;26.60;60.40;;;;;;5011633;28;20144;-74